Time;durP1;ratioP1;P1;durP2;ratioP2;P2;SDS_P1;SDS_P2;PMS_P1;PMS_P2;Temp;Humidity;BMP_temperature;BMP_pressure;BME280_temperature;BME280_humidity;BME280_pressure;Samples;Min_cycle;Max_cycle;Signal;HPM_P1;HPM_P2
2023/01/20 00:02:27;;;;;;;;;;;8.50;60.60;;;;;;4970586;28;20528;-90
2023/01/20 00:04:53;;;;;;;;;;;8.50;60.70;;;;;;4949739;28;19933;-91
2023/01/20 00:07:19;;;;;;;;;;;8.50;60.60;;;;;;4952628;28;20298;-90
2023/01/20 00:09:45;;;;;;;;;;;8.50;60.50;;;;;;4968641;28;19933;-90
2023/01/20 00:12:10;;;;;;;;;;;8.50;60.50;;;;;;4971705;28;19929;-91
2023/01/20 00:14:36;;;;;;;;;;;8.40;60.30;;;;;;4967836;28;20039;-91
2023/01/20 00:17:02;;;;;;;;;;;8.30;60.40;;;;;;4960011;28;19925;-90
2023/01/20 00:19:31;;;;;;;;;;;8.30;60.60;;;;;;4946226;28;20418;-91
2023/01/20 00:21:57;;;;;;;;;;;8.30;60.70;;;;;;4973673;28;20001;-91
2023/01/20 00:24:22;;;;;;;;;;;8.30;60.80;;;;;;4967489;28;20010;-92
2023/01/20 00:26:48;;;;;;;;;;;8.40;60.90;;;;;;4969770;28;19921;-93
2023/01/20 00:29:13;;;;;;;;;;;8.40;60.70;;;;;;4975812;28;19981;-92
2023/01/20 00:31:40;;;;;;;;;;;8.40;60.50;;;;;;4953290;28;20016;-92
2023/01/20 00:34:06;;;;;;;;;;;8.40;60.70;;;;;;4982066;28;20354;-91
2023/01/20 00:36:31;;;;;;;;;;;8.40;60.70;;;;;;4954098;28;19914;-91
2023/01/20 00:38:57;;;;;;;;;;;8.40;60.70;;;;;;4951528;28;20289;-91
2023/01/20 00:41:23;;;;;;;;;;;8.40;60.50;;;;;;4962647;28;19996;-91
2023/01/20 00:43:49;;;;;;;;;;;8.50;60.60;;;;;;4951731;28;19964;-91
2023/01/20 00:46:15;;;;;;;;;;;8.50;60.70;;;;;;4952273;28;19922;-91
2023/01/20 00:48:40;;;;;;;;;;;8.50;60.70;;;;;;4970189;28;19930;-90
2023/01/20 00:51:07;;;;;;;;;;;8.50;60.70;;;;;;4969294;28;19914;-91
2023/01/20 00:53:33;;;;;;;;;;;8.50;60.50;;;;;;4969347;28;19949;-90
2023/01/20 00:55:58;;;;;;;;;;;8.50;60.50;;;;;;4970598;28;19957;-90
2023/01/20 00:58:25;;;;;;;;;;;8.50;60.60;;;;;;4971267;28;19944;-91
2023/01/20 01:00:51;;;;;;;;;;;8.50;60.60;;;;;;4955742;28;19926;-91
2023/01/20 01:03:17;;;;;;;;;;;8.50;60.70;;;;;;4954069;28;19914;-90
2023/01/20 01:05:43;;;;;;;;;;;8.50;60.70;;;;;;4958803;28;19918;-91
2023/01/20 01:08:09;;;;;;;;;;;8.50;60.70;;;;;;4955084;28;19933;-91
2023/01/20 01:10:34;;;;;;;;;;;8.60;60.60;;;;;;4955401;28;19945;-90
2023/01/20 01:13:00;;;;;;;;;;;8.60;60.40;;;;;;4956470;28;19980;-91
2023/01/20 01:15:26;;;;;;;;;;;8.50;60.40;;;;;;4975214;28;19926;-91
2023/01/20 01:17:52;;;;;;;;;;;8.50;60.50;;;;;;4975307;28;20313;-92
2023/01/20 01:20:18;;;;;;;;;;;8.50;60.30;;;;;;4959312;28;19919;-92
2023/01/20 01:22:43;;;;;;;;;;;8.40;60.30;;;;;;4963251;28;19929;-91
2023/01/20 01:25:09;;;;;;;;;;;8.40;60.40;;;;;;4976733;28;20005;-91
2023/01/20 01:27:35;;;;;;;;;;;8.40;60.60;;;;;;4979721;28;19914;-91
2023/01/20 01:30:01;;;;;;;;;;;8.40;60.50;;;;;;4978544;28;19933;-91
2023/01/20 01:32:26;;;;;;;;;;;8.40;60.50;;;;;;4970053;28;19914;-91
2023/01/20 01:34:52;;;;;;;;;;;8.40;60.60;;;;;;4959999;28;20333;-89
2023/01/20 01:37:18;;;;;;;;;;;8.40;60.70;;;;;;4978304;28;19984;-89
2023/01/20 01:39:43;;;;;;;;;;;8.40;60.70;;;;;;4981693;28;20281;-90
2023/01/20 01:42:10;;;;;;;;;;;8.40;60.70;;;;;;4997410;28;19914;-90
2023/01/20 01:44:38;;;;;;;;;;;8.40;60.70;;;;;;4978305;28;19921;-90
2023/01/20 01:47:03;;;;;;;;;;;8.40;60.60;;;;;;4974725;28;19973;-89
2023/01/20 01:49:31;;;;;;;;;;;8.40;60.60;;;;;;4991299;28;20428;-89
2023/01/20 01:51:58;;;;;;;;;;;8.40;60.70;;;;;;4971134;28;19918;-88
2023/01/20 01:54:26;;;;;;;;;;;8.40;60.70;;;;;;4986220;28;20698;-88
2023/01/20 01:56:52;;;;;;;;;;;8.40;60.70;;;;;;4987780;28;19965;-88
2023/01/20 01:59:18;;;;;;;;;;;8.50;60.70;;;;;;4968790;28;19918;-91
2023/01/20 02:01:47;;;;;;;;;;;8.50;60.60;;;;;;4978860;28;20318;-90
2023/01/20 02:04:13;;;;;;;;;;;8.40;60.70;;;;;;4995002;28;19914;-91
2023/01/20 02:06:47;;;;;;;;;;;8.50;60.70;;;;;;4978521;28;19914;-91
2023/01/20 02:09:12;;;;;;;;;;;8.50;60.60;;;;;;4978552;28;19929;-91
2023/01/20 02:11:40;;;;;;;;;;;8.50;60.40;;;;;;4993426;28;19914;-91
2023/01/20 02:14:06;;;;;;;;;;;8.50;60.50;;;;;;4975026;28;19914;-91
2023/01/20 02:16:38;;;;;;;;;;;8.50;60.60;;;;;;4991914;28;19914;-91
2023/01/20 02:19:03;;;;;;;;;;;8.50;60.50;;;;;;4990033;28;19914;-90
2023/01/20 02:21:48;;;;;;;;;;;8.50;60.50;;;;;;4987934;28;19914;-91
2023/01/20 02:24:22;;;;;;;;;;;8.40;60.50;;;;;;4990310;28;19920;-91
2023/01/20 02:26:58;;;;;;;;;;;8.40;60.60;;;;;;4975552;28;19946;-91
2023/01/20 02:29:39;;;;;;;;;;;8.40;60.60;;;;;;4956681;28;19929;-91
2023/01/20 02:32:04;;;;;;;;;;;8.40;60.70;;;;;;4973468;28;19922;-92
2023/01/20 02:34:49;;;;;;;;;;;8.30;60.60;;;;;;4974121;28;19917;-90
2023/01/20 02:37:20;;;;;;;;;;;8.40;60.70;;;;;;4993989;28;19917;-90
2023/01/20 02:40:04;;;;;;;;;;;8.30;60.70;;;;;;4981502;28;20378;-90
2023/01/20 02:42:36;;;;;;;;;;;8.40;60.70;;;;;;4991627;28;19949;-90
2023/01/20 02:45:08;;;;;;;;;;;8.30;60.70;;;;;;4991702;28;19920;-90
2023/01/20 02:47:40;;;;;;;;;;;8.30;60.70;;;;;;4970011;28;19915;-90
2023/01/20 02:50:08;;;;;;;;;;;8.30;60.60;;;;;;4973227;28;19925;-90
2023/01/20 02:52:35;;;;;;;;;;;8.30;60.80;;;;;;4976771;28;19936;-91
2023/01/20 02:55:03;;;;;;;;;;;8.30;60.70;;;;;;4974283;28;19924;-91
2023/01/20 02:57:35;;;;;;;;;;;8.30;60.50;;;;;;4979680;28;19922;-91
2023/01/20 03:00:07;;;;;;;;;;;8.30;60.50;;;;;;4991049;28;19917;-91
2023/01/20 03:02:34;;;;;;;;;;;8.20;60.50;;;;;;4973285;28;19952;-91
2023/01/20 03:05:03;;;;;;;;;;;8.20;60.50;;;;;;4991075;28;20096;-91
2023/01/20 03:07:30;;;;;;;;;;;8.20;60.40;;;;;;4991026;28;19914;-90
2023/01/20 03:09:57;;;;;;;;;;;8.10;60.50;;;;;;4990827;28;19930;-90
2023/01/20 03:12:28;;;;;;;;;;;8.10;60.50;;;;;;4990489;28;19918;-91
2023/01/20 03:14:54;;;;;;;;;;;8.10;60.70;;;;;;4971396;28;19914;-90
2023/01/20 03:17:19;;;;;;;;;;;8.20;60.70;;;;;;4974458;28;19996;-91
2023/01/20 03:19:45;;;;;;;;;;;8.10;60.60;;;;;;4982922;28;20041;-89
2023/01/20 03:22:11;;;;;;;;;;;8.00;60.60;;;;;;4997556;28;19913;-90
2023/01/20 03:24:37;;;;;;;;;;;8.00;60.60;;;;;;4970216;28;19925;-89
2023/01/20 03:27:03;;;;;;;;;;;7.90;60.50;;;;;;4973231;28;19918;-90
2023/01/20 03:29:29;;;;;;;;;;;7.90;60.50;;;;;;4954769;28;19931;-89
2023/01/20 03:31:59;;;;;;;;;;;7.80;60.40;;;;;;4955070;28;19913;-90
2023/01/20 03:34:25;;;;;;;;;;;7.70;60.10;;;;;;4967805;28;20568;-90
2023/01/20 03:36:52;;;;;;;;;;;7.60;60.30;;;;;;4973187;28;20516;-90
2023/01/20 03:39:17;;;;;;;;;;;7.60;60.50;;;;;;4984943;28;19921;-90
2023/01/20 03:42:02;;;;;;;;;;;7.60;60.70;;;;;;4983912;28;19982;-90
2023/01/20 03:44:46;;;;;;;;;;;7.60;60.70;;;;;;4967779;28;19930;-90
2023/01/20 03:47:14;;;;;;;;;;;7.60;60.80;;;;;;4952726;28;19921;-90
2023/01/20 03:49:59;;;;;;;;;;;7.60;60.90;;;;;;4952935;28;19934;-90
2023/01/20 03:52:41;;;;;;;;;;;7.70;60.90;;;;;;4953235;28;19922;-90
2023/01/20 03:55:33;;;;;;;;;;;7.60;60.90;;;;;;4969912;28;19918;-90
2023/01/20 03:58:19;;;;;;;;;;;7.70;60.90;;;;;;4953779;28;19985;-89
2023/01/20 04:00:47;;;;;;;;;;;7.80;60.80;;;;;;4962409;28;20389;-90
2023/01/20 04:03:19;;;;;;;;;;;7.80;60.80;;;;;;4952227;28;19921;-90
2023/01/20 04:05:46;;;;;;;;;;;7.80;60.70;;;;;;4969754;28;19973;-90
2023/01/20 04:08:13;;;;;;;;;;;7.80;60.80;;;;;;4969611;28;19926;-90
2023/01/20 04:10:40;;;;;;;;;;;7.90;60.90;;;;;;4969569;28;20413;-89
2023/01/20 04:13:05;;;;;;;;;;;7.90;60.80;;;;;;4969739;28;19918;-90
2023/01/20 04:15:32;;;;;;;;;;;7.90;60.70;;;;;;4972738;28;20286;-91
2023/01/20 04:18:08;;;;;;;;;;;7.90;60.70;;;;;;4972228;28;19918;-90
2023/01/20 04:20:34;;;;;;;;;;;8.00;60.80;;;;;;4952240;28;20282;-90
2023/01/20 04:23:00;;;;;;;;;;;8.00;60.80;;;;;;4972844;28;19922;-90
2023/01/20 04:25:27;;;;;;;;;;;8.00;60.80;;;;;;4970119;28;19922;-90
2023/01/20 04:27:53;;;;;;;;;;;8.00;60.60;;;;;;4959218;28;19964;-89
2023/01/20 04:30:18;;;;;;;;;;;8.10;60.60;;;;;;4952599;28;20005;-90
2023/01/20 04:32:44;;;;;;;;;;;8.10;60.70;;;;;;4959657;28;19914;-90
2023/01/20 04:35:14;;;;;;;;;;;8.10;60.60;;;;;;4961222;28;20014;-90
2023/01/20 04:37:40;;;;;;;;;;;8.10;60.60;;;;;;4973641;28;19920;-89
2023/01/20 04:40:06;;;;;;;;;;;8.20;60.50;;;;;;4974358;28;19918;-89
2023/01/20 04:42:31;;;;;;;;;;;8.20;60.60;;;;;;4954490;28;20266;-89
2023/01/20 04:44:58;;;;;;;;;;;8.20;60.60;;;;;;4954120;28;20004;-89
2023/01/20 04:47:27;;;;;;;;;;;8.20;60.60;;;;;;4956188;28;19925;-91
2023/01/20 04:49:52;;;;;;;;;;;8.20;60.60;;;;;;4974794;28;19941;-91
2023/01/20 04:52:18;;;;;;;;;;;8.20;60.50;;;;;;4974868;28;19918;-91
2023/01/20 04:54:44;;;;;;;;;;;8.30;60.50;;;;;;4973057;28;19918;-90
2023/01/20 04:57:10;;;;;;;;;;;8.30;60.50;;;;;;4972564;28;19919;-90
2023/01/20 04:59:36;;;;;;;;;;;8.30;60.40;;;;;;4974313;28;19918;-90
2023/01/20 05:02:01;;;;;;;;;;;8.30;60.30;;;;;;4974998;28;20325;-89
2023/01/20 05:04:27;;;;;;;;;;;8.30;60.20;;;;;;4965720;28;19925;-90
2023/01/20 05:06:52;;;;;;;;;;;8.30;60.10;;;;;;4974075;28;20355;-90
2023/01/20 05:09:18;;;;;;;;;;;8.20;60.20;;;;;;4995280;28;20381;-90
2023/01/20 05:11:44;;;;;;;;;;;8.30;60.20;;;;;;4970552;28;19952;-90
2023/01/20 05:14:10;;;;;;;;;;;8.20;60.20;;;;;;4977549;28;19918;-90
2023/01/20 05:16:36;;;;;;;;;;;8.30;60.20;;;;;;4972892;28;19914;-89
2023/01/20 05:19:02;;;;;;;;;;;8.20;60.20;;;;;;4975520;28;19936;-90
2023/01/20 05:21:27;;;;;;;;;;;8.20;60.10;;;;;;4993830;28;19924;-90
2023/01/20 05:23:53;;;;;;;;;;;8.20;60.00;;;;;;4974883;28;19961;-90
2023/01/20 05:26:19;;;;;;;;;;;8.10;60.00;;;;;;4993622;28;20323;-91
2023/01/20 05:28:45;;;;;;;;;;;8.10;60.00;;;;;;4974753;28;19922;-91
2023/01/20 05:31:11;;;;;;;;;;;8.10;60.00;;;;;;4982878;28;19918;-90
2023/01/20 05:33:38;;;;;;;;;;;8.10;60.10;;;;;;4971080;28;19970;-88
2023/01/20 05:36:05;;;;;;;;;;;8.10;60.00;;;;;;4976568;28;19914;-91
2023/01/20 05:38:30;;;;;;;;;;;8.20;60.10;;;;;;4985104;28;19941;-90
2023/01/20 05:40:59;;;;;;;;;;;8.10;60.00;;;;;;4992042;28;20354;-89
2023/01/20 05:43:25;;;;;;;;;;;8.10;60.00;;;;;;4962456;28;19914;-90
2023/01/20 05:45:51;;;;;;;;;;;8.10;60.00;;;;;;4972598;28;20003;-90
2023/01/20 05:48:16;;;;;;;;;;;8.10;60.00;;;;;;4983298;28;19922;-90
2023/01/20 05:50:42;;;;;;;;;;;8.10;60.10;;;;;;4974753;28;19933;-90
2023/01/20 05:53:07;;;;;;;;;;;8.10;60.30;;;;;;4973936;28;19918;-91
2023/01/20 05:55:33;;;;;;;;;;;8.10;60.10;;;;;;4974506;28;19921;-91
2023/01/20 05:58:02;;;;;;;;;;;8.10;60.10;;;;;;4991600;28;20001;-91
2023/01/20 06:00:28;;;;;;;;;;;8.00;60.10;;;;;;4991759;28;19913;-90
2023/01/20 06:02:54;;;;;;;;;;;8.00;60.10;;;;;;4988242;28;20263;-91
2023/01/20 06:05:35;;;;;;;;;;;8.10;60.40;;;;;;4939232;28;20160;-90
2023/01/20 06:08:01;;;;;;;;;;;8.00;60.30;;;;;;4962926;28;19925;-90
2023/01/20 06:10:29;;;;;;;;;;;8.00;60.30;;;;;;4976674;28;20016;-90
2023/01/20 06:12:54;;;;;;;;;;;8.10;60.50;;;;;;4980162;28;19918;-91
2023/01/20 06:15:22;;;;;;;;;;;8.10;60.40;;;;;;4972135;28;20017;-90
2023/01/20 06:17:48;;;;;;;;;;;8.10;60.40;;;;;;4953831;28;19963;-90
2023/01/20 06:20:14;;;;;;;;;;;8.10;60.30;;;;;;4970011;28;20406;-90
2023/01/20 06:22:40;;;;;;;;;;;8.10;60.30;;;;;;4972900;28;19918;-90
2023/01/20 06:25:05;;;;;;;;;;;8.10;60.30;;;;;;4972193;28;20323;-90
2023/01/20 06:27:31;;;;;;;;;;;8.10;60.20;;;;;;4954407;28;19924;-90
2023/01/20 06:29:57;;;;;;;;;;;8.10;60.30;;;;;;4954675;28;19922;-90
2023/01/20 06:32:23;;;;;;;;;;;8.10;60.30;;;;;;4975219;28;19922;-90
2023/01/20 06:34:51;;;;;;;;;;;8.10;60.30;;;;;;4959401;28;20338;-90
2023/01/20 06:37:18;;;;;;;;;;;8.10;60.20;;;;;;4956679;28;19926;-90
2023/01/20 06:39:44;;;;;;;;;;;8.10;60.30;;;;;;4990788;28;19910;-90
2023/01/20 06:42:10;;;;;;;;;;;8.20;60.40;;;;;;4964543;28;19922;-90
2023/01/20 06:44:36;;;;;;;;;;;8.20;60.30;;;;;;4957589;28;19921;-91
2023/01/20 06:47:01;;;;;;;;;;;8.20;60.10;;;;;;4964880;28;19922;-91
2023/01/20 06:49:27;;;;;;;;;;;8.20;60.20;;;;;;4965365;28;20009;-91
2023/01/20 06:51:53;;;;;;;;;;;8.20;60.10;;;;;;4944201;28;19923;-90
2023/01/20 06:54:19;;;;;;;;;;;8.20;60.30;;;;;;4950460;28;20371;-90
2023/01/20 06:56:45;;;;;;;;;;;8.30;60.10;;;;;;4974969;28;20384;-90
2023/01/20 06:59:10;;;;;;;;;;;8.20;59.90;;;;;;4959282;28;20005;-90
2023/01/20 07:01:36;;;;;;;;;;;8.20;59.90;;;;;;4949485;28;19934;-89
2023/01/20 07:04:02;;;;;;;;;;;8.20;60.00;;;;;;4957157;28;19914;-90
2023/01/20 07:06:29;;;;;;;;;;;8.20;60.00;;;;;;4951055;28;19922;-89
2023/01/20 07:08:55;;;;;;;;;;;8.10;60.10;;;;;;4973005;28;19929;-89
2023/01/20 07:11:21;;;;;;;;;;;8.10;60.20;;;;;;4965423;28;20287;-90
2023/01/20 07:13:49;;;;;;;;;;;8.20;60.20;;;;;;4968153;28;19961;-91
2023/01/20 07:16:15;;;;;;;;;;;8.20;60.20;;;;;;4950353;28;20232;-91
2023/01/20 07:18:41;;;;;;;;;;;8.20;60.30;;;;;;4949964;28;19922;-91
2023/01/20 07:21:08;;;;;;;;;;;8.20;60.10;;;;;;4959627;28;20005;-91
2023/01/20 07:23:42;;;;;;;;;;;8.20;60.20;;;;;;4964329;28;19956;-90
2023/01/20 07:26:12;;;;;;;;;;;8.20;60.20;;;;;;4965948;28;19964;-90
2023/01/20 07:28:38;;;;;;;;;;;8.20;60.30;;;;;;4967626;28;19934;-90
2023/01/20 07:31:10;;;;;;;;;;;8.20;60.20;;;;;;4947459;28;19918;-90
2023/01/20 07:33:35;;;;;;;;;;;8.30;60.40;;;;;;4970268;28;20022;-90
2023/01/20 07:36:06;;;;;;;;;;;8.30;60.40;;;;;;4964738;28;19926;-90
2023/01/20 07:38:31;;;;;;;;;;;8.20;60.20;;;;;;4949163;28;19914;-91
2023/01/20 07:41:01;;;;;;;;;;;8.30;60.30;;;;;;4962694;28;19925;-90
2023/01/20 07:43:27;;;;;;;;;;;8.30;60.30;;;;;;4967795;28;19925;-91
2023/01/20 07:45:56;;;;;;;;;;;8.30;60.10;;;;;;4948025;28;19918;-90
2023/01/20 07:48:21;;;;;;;;;;;8.20;60.20;;;;;;4965819;28;19977;-90
2023/01/20 07:50:47;;;;;;;;;;;8.20;60.00;;;;;;4948971;28;19918;-90
2023/01/20 07:53:13;;;;;;;;;;;8.20;60.20;;;;;;4944554;28;20260;-90
2023/01/20 07:55:38;;;;;;;;;;;8.20;60.10;;;;;;4967392;28;19922;-90
2023/01/20 07:58:05;;;;;;;;;;;8.20;60.20;;;;;;4945935;28;19922;-90
2023/01/20 08:00:30;;;;;;;;;;;8.20;60.10;;;;;;4957184;28;19972;-91
2023/01/20 08:02:56;;;;;;;;;;;8.20;60.20;;;;;;4967925;28;19926;-88
2023/01/20 08:05:22;;;;;;;;;;;8.20;60.20;;;;;;4966536;28;19915;-89
2023/01/20 08:07:50;;;;;;;;;;;8.30;60.20;;;;;;4958384;28;19968;-90
2023/01/20 08:10:16;;;;;;;;;;;8.30;60.20;;;;;;4959654;28;20432;-91
2023/01/20 08:12:45;;;;;;;;;;;8.30;60.30;;;;;;4967074;28;20146;-90
2023/01/20 08:15:10;;;;;;;;;;;8.30;60.40;;;;;;4966551;28;19923;-90
2023/01/20 08:17:36;;;;;;;;;;;8.40;60.30;;;;;;4949317;28;19925;-89
2023/01/20 08:20:02;;;;;;;;;;;8.40;60.30;;;;;;4950687;28;19944;-90
2023/01/20 08:22:28;;;;;;;;;;;8.50;60.30;;;;;;4972084;28;19933;-90
2023/01/20 08:24:53;;;;;;;;;;;8.40;60.10;;;;;;4948335;28;20367;-90
2023/01/20 08:27:19;;;;;;;;;;;8.50;60.10;;;;;;4973310;28;19926;-90
2023/01/20 08:29:48;;;;;;;;;;;8.50;60.00;;;;;;4973213;28;19949;-89
2023/01/20 08:32:16;;;;;;;;;;;8.50;60.10;;;;;;4960971;28;19922;-90
2023/01/20 08:34:44;;;;;;;;;;;8.50;60.30;;;;;;4967483;28;20714;-87
2023/01/20 08:37:10;;;;;;;;;;;8.50;60.10;;;;;;4964660;28;19922;-87
2023/01/20 08:39:36;;;;;;;;;;;8.50;60.20;;;;;;4982930;28;19949;-89
2023/01/20 08:42:01;;;;;;;;;;;8.50;60.10;;;;;;4961283;28;19969;-91
2023/01/20 08:44:27;;;;;;;;;;;8.50;60.20;;;;;;4954560;28;19918;-91
2023/01/20 08:46:58;;;;;;;;;;;8.50;60.10;;;;;;4964030;28;19922;-91
2023/01/20 08:49:23;;;;;;;;;;;8.60;60.30;;;;;;4970969;28;19925;-90
2023/01/20 08:51:49;;;;;;;;;;;8.60;60.40;;;;;;4969206;28;19930;-91
2023/01/20 08:54:15;;;;;;;;;;;8.70;60.50;;;;;;4964921;28;19953;-90
2023/01/20 08:56:40;;;;;;;;;;;8.70;60.40;;;;;;4947745;28;20069;-90
2023/01/20 08:59:06;;;;;;;;;;;8.80;60.30;;;;;;4950110;28;19918;-90
2023/01/20 09:01:34;;;;;;;;;;;8.80;60.20;;;;;;4963766;28;20243;-90
2023/01/20 09:04:00;;;;;;;;;;;8.80;60.40;;;;;;4944053;28;19918;-91
2023/01/20 09:06:26;;;;;;;;;;;8.90;60.40;;;;;;4943332;28;19953;-91
2023/01/20 09:08:52;;;;;;;;;;;8.90;60.30;;;;;;4961503;28;19936;-91
2023/01/20 09:11:20;;;;;;;;;;;9.00;60.40;;;;;;4961935;28;19937;-91
2023/01/20 09:13:46;;;;;;;;;;;9.00;60.00;;;;;;4954146;28;19918;-92
2023/01/20 09:16:12;;;;;;;;;;;9.00;60.10;;;;;;4964713;28;19926;-90
2023/01/20 09:18:38;;;;;;;;;;;9.00;60.00;;;;;;4959241;28;19925;-91
2023/01/20 09:21:05;;;;;;;;;;;9.00;59.90;;;;;;4941289;28;20005;-92
2023/01/20 09:23:32;;;;;;;;;;;9.00;60.10;;;;;;4946013;28;19981;-91
2023/01/20 09:26:01;;;;;;;;;;;9.10;60.20;;;;;;4953740;28;19918;-91
2023/01/20 09:28:27;;;;;;;;;;;9.20;60.20;;;;;;4948630;28;19965;-90
2023/01/20 09:30:59;;;;;;;;;;;9.20;60.20;;;;;;4949971;28;19968;-90
2023/01/20 09:33:25;;;;;;;;;;;9.30;60.30;;;;;;4942007;28;20398;-90
2023/01/20 09:35:54;;;;;;;;;;;9.40;60.40;;;;;;4947544;28;19918;-90
2023/01/20 09:44:13;;;;;;;;;;;9.70;60.40;;;;;;4961693;28;19929;-90
2023/01/20 09:47:18;;;;;;;;;;;9.70;60.10;;;;;;4962595;28;20386;-90
2023/01/20 09:55:20;;;;;;;;;;;9.80;60.20;;;;;;4958088;28;19929;-90
2023/01/20 09:57:48;;;;;;;;;;;9.80;59.80;;;;;;4944811;28;19925;-91
2023/01/20 10:00:16;;;;;;;;;;;9.90;60.00;;;;;;4962569;28;19926;-90
2023/01/20 10:02:44;;;;;;;;;;;10.00;60.10;;;;;;4949135;28;19973;-90
2023/01/20 10:05:11;;;;;;;;;;;10.20;60.20;;;;;;4966911;28;19922;-90
2023/01/20 10:07:45;;;;;;;;;;;10.50;61.20;;;;;;4942005;28;20071;-91
2023/01/20 10:10:10;;;;;;;;;;;10.90;62.00;;;;;;4949819;28;20477;-91
2023/01/20 10:12:43;;;;;;;;;;;11.30;62.10;;;;;;4964360;28;19925;-91
2023/01/20 10:15:17;;;;;;;;;;;11.60;62.20;;;;;;4946906;28;19922;-90
2023/01/20 10:17:52;;;;;;;;;;;11.70;60.80;;;;;;4967258;28;19968;-90
2023/01/20 10:20:36;;;;;;;;;;;11.80;60.30;;;;;;4961537;28;20016;-90
2023/01/20 10:23:25;;;;;;;;;;;11.80;60.00;;;;;;4962052;28;20008;-91
2023/01/20 10:26:08;;;;;;;;;;;11.80;59.80;;;;;;4935816;28;20477;-91
2023/01/20 10:28:38;;;;;;;;;;;11.80;59.60;;;;;;4963700;28;19930;-91
2023/01/20 10:31:04;;;;;;;;;;;11.80;58.70;;;;;;4961031;28;19992;-90
2023/01/20 10:33:36;;;;;;;;;;;11.80;58.90;;;;;;4941141;28;20374;-92
2023/01/20 10:36:01;;;;;;;;;;;11.90;59.70;;;;;;4945071;28;20381;-91
2023/01/20 10:38:47;;;;;;;;;;;12.30;61.20;;;;;;4944840;28;19922;-90
2023/01/20 10:41:19;;;;;;;;;;;12.50;60.80;;;;;;4950224;28;20447;-91
2023/01/20 10:43:45;;;;;;;;;;;12.70;60.40;;;;;;4949894;28;19923;-90
2023/01/20 10:46:25;;;;;;;;;;;12.80;60.10;;;;;;4963640;28;19930;-90
2023/01/20 10:49:20;;;;;;;;;;;12.80;59.70;;;;;;4957394;28;19941;-90
2023/01/20 10:51:48;;;;;;;;;;;12.80;59.80;;;;;;4963851;28;19922;-90
2023/01/20 10:54:17;;;;;;;;;;;12.80;58.30;;;;;;4966212;28;19976;-90
2023/01/20 10:56:44;;;;;;;;;;;12.80;59.10;;;;;;4947955;28;19957;-94
2023/01/20 10:59:15;;;;;;;;;;;12.80;59.30;;;;;;4964271;28;19926;-90
2023/01/20 11:01:43;;;;;;;;;;;12.80;59.10;;;;;;4967850;28;19922;-89
2023/01/20 11:04:19;;;;;;;;;;;12.80;58.20;;;;;;4970006;28;21821;-90
2023/01/20 11:06:50;;;;;;;;;;;12.80;58.60;;;;;;4962414;28;20072;-91
2023/01/20 11:09:22;;;;;;;;;;;12.80;57.90;;;;;;4946144;28;19930;-91
2023/01/20 12:17:20;;;;;;;;;;;12.70;52.30;;;;;;3388895;23;20484;-89
2023/01/20 12:23:19;;;;;;;;;;;12.60;54.00;;;;;;4932422;29;20119;-89
2023/01/20 12:28:50;;;;;;;;;;;12.70;54.50;;;;;;4961488;28;19930;-88
2023/01/20 12:31:47;;;;;;;;;;;12.70;55.70;;;;;;4969463;28;20294;-89
2023/01/20 12:40:38;;;;;;;;;;;;;;;;;;;;;
2023/01/20 12:43:13;;;;;;;;;;;12.20;53.50;;;;;;4954752;28;19929;-88
2023/01/20 12:45:58;;;;;;;;;;;;;;;;;;;;;
2023/01/20 12:48:46;;;;;;;;;;;;;;;;;;;;;
2023/01/20 12:52:01;;;;;;;;;;;;;;;;;;;;;
2023/01/20 12:54:26;;;;;;;;;;;11.80;53.70;;;;;;4951074;28;20200;-87
2023/01/20 12:57:12;;;;;;;;;;;11.70;53.60;;;;;;4971982;28;20455;-89
2023/01/20 13:00:28;;;;;;;;;;;;;;;;;;;;;
2023/01/20 14:53:03;;;;;;;;;;;10.50;54.60;;;;;;4950743;28;19945;-90
2023/01/20 15:15:21;;;;;;;;;;;10.10;54.20;;;;;;5223706;23;20693;-91
2023/01/20 15:18:13;;;;;;;;;;;10.10;54.60;;;;;;4958361;28;20293;-91
2023/01/20 15:21:08;;;;;;;;;;;10.20;55.00;;;;;;4960105;28;20467;-90
2023/01/20 15:23:44;;;;;;;;;;;10.20;55.10;;;;;;4967103;28;20345;-96
2023/01/20 15:26:31;;;;;;;;;;;;;;;;;;;;;
2023/01/20 15:29:01;;;;;;;;;;;10.10;54.90;;;;;;4964028;28;19930;-95
2023/01/20 15:31:26;;;;;;;;;;;10.00;54.20;;;;;;4955839;28;19954;-89
2023/01/20 15:33:55;;;;;;;;;;;9.90;54.40;;;;;;4956629;28;19953;-90
2023/01/20 16:46:02;;;;;;;;;;;7.10;56.60;;;;;;3118891;26;19935;-90
2023/01/20 16:48:28;;;;;;;;;;;7.10;56.80;;;;;;4944502;28;20260;-92
2023/01/20 16:50:54;;;;;;;;;;;7.10;56.90;;;;;;4946555;28;20013;-89
2023/01/20 16:53:19;;;;;;;;;;;7.10;57.00;;;;;;4947344;29;19925;-92
2023/01/20 16:55:46;;;;;;;;;;;7.20;57.00;;;;;;4950800;28;19996;-91
2023/01/20 16:58:12;;;;;;;;;;;7.20;56.90;;;;;;4942585;28;20445;-89
2023/01/20 17:00:38;;;;;;;;;;;7.20;56.80;;;;;;4952182;28;20621;-94
2023/01/20 17:03:04;;;;;;;;;;;7.20;57.00;;;;;;4949256;29;19919;-90
2023/01/20 17:05:29;;;;;;;;;;;7.30;56.90;;;;;;4947494;29;20461;-93
2023/01/20 17:07:56;;;;;;;;;;;7.30;56.80;;;;;;4944775;29;20033;-94
2023/01/20 17:10:22;;;;;;;;;;;7.30;56.60;;;;;;4953121;28;20306;-91
2023/01/20 17:12:48;;;;;;;;;;;7.30;56.60;;;;;;4962548;29;19915;-91
2023/01/20 17:15:14;;;;;;;;;;;7.20;56.50;;;;;;4960125;29;19927;-88
2023/01/20 17:17:40;;;;;;;;;;;7.20;56.50;;;;;;4960485;28;19926;-91
2023/01/20 17:20:09;;;;;;;;;;;7.20;56.40;;;;;;4961175;29;20405;-91
2023/01/20 17:22:36;;;;;;;;;;;7.10;56.40;;;;;;4959705;29;19964;-90
2023/01/20 17:25:02;;;;;;;;;;;7.00;56.40;;;;;;4960739;29;20040;-92
2023/01/20 17:27:27;;;;;;;;;;;6.90;56.20;;;;;;4958421;28;19910;-94
2023/01/20 17:29:54;;;;;;;;;;;6.80;56.10;;;;;;4963051;29;20301;-92
2023/01/20 17:32:19;;;;;;;;;;;6.80;56.30;;;;;;4952638;29;19918;-93
2023/01/20 17:34:46;;;;;;;;;;;6.80;56.40;;;;;;4951118;29;19923;-93
2023/01/20 17:37:12;;;;;;;;;;;6.70;56.40;;;;;;4964184;28;19919;-89
2023/01/20 17:39:38;;;;;;;;;;;6.70;56.30;;;;;;4960322;28;20349;-89
2023/01/20 17:42:03;;;;;;;;;;;6.60;56.00;;;;;;4960679;28;19915;-89
2023/01/20 17:44:29;;;;;;;;;;;6.50;55.50;;;;;;4958372;28;20014;-94
2023/01/20 17:47:23;;;;;;;;;;;6.30;55.20;;;;;;4964790;29;19927;-91
2023/01/20 17:49:53;;;;;;;;;;;6.20;55.30;;;;;;4965801;28;19993;-92
2023/01/20 17:52:19;;;;;;;;;;;6.10;55.20;;;;;;4960184;29;19919;-89
2023/01/20 17:54:45;;;;;;;;;;;6.00;55.00;;;;;;4950830;29;20376;-92
2023/01/20 17:57:10;;;;;;;;;;;5.90;55.00;;;;;;4952710;28;19925;-93
2023/01/20 17:59:36;;;;;;;;;;;5.70;55.10;;;;;;4971845;28;19923;-91
2023/01/20 18:02:04;;;;;;;;;;;5.70;54.90;;;;;;4946732;28;19922;-89
2023/01/20 18:04:30;;;;;;;;;;;5.60;54.80;;;;;;4950119;28;19923;-88
2023/01/20 18:06:55;;;;;;;;;;;5.50;54.80;;;;;;4944595;28;19941;-91
2023/01/20 18:09:21;;;;;;;;;;;5.40;55.30;;;;;;4952213;29;20293;-90
2023/01/20 18:11:47;;;;;;;;;;;5.30;55.50;;;;;;4954183;28;19923;-92
2023/01/20 18:14:13;;;;;;;;;;;5.20;55.50;;;;;;4953832;29;20274;-92
2023/01/20 18:16:40;;;;;;;;;;;5.20;55.60;;;;;;4947585;29;20378;-91
2023/01/20 18:19:06;;;;;;;;;;;5.10;55.60;;;;;;4954351;28;19923;-90
2023/01/20 18:21:33;;;;;;;;;;;5.00;55.60;;;;;;4952472;28;19922;-92
2023/01/20 18:23:59;;;;;;;;;;;5.00;55.60;;;;;;4952193;28;20017;-89
2023/01/20 18:26:25;;;;;;;;;;;4.90;55.60;;;;;;4957652;28;19950;-92
2023/01/20 18:28:55;;;;;;;;;;;4.90;55.70;;;;;;4949271;28;19952;-89
2023/01/20 18:31:22;;;;;;;;;;;4.80;55.80;;;;;;4968637;28;19942;-90
2023/01/20 18:33:51;;;;;;;;;;;4.70;55.80;;;;;;4943762;29;19911;-90
2023/01/20 18:36:22;;;;;;;;;;;4.70;55.70;;;;;;4958002;29;19922;-95
2023/01/20 18:38:51;;;;;;;;;;;4.70;56.20;;;;;;4952056;28;19922;-90
2023/01/20 18:41:17;;;;;;;;;;;4.60;56.20;;;;;;4953447;28;20336;-91
2023/01/20 18:43:46;;;;;;;;;;;4.60;56.30;;;;;;4952543;29;19931;-90
2023/01/20 18:46:12;;;;;;;;;;;4.60;56.20;;;;;;4957874;28;20013;-89
2023/01/20 18:48:44;;;;;;;;;;;4.50;56.20;;;;;;4958383;28;20069;-91
2023/01/20 18:51:13;;;;;;;;;;;4.50;56.30;;;;;;4953657;28;20359;-94
2023/01/20 18:53:39;;;;;;;;;;;4.50;56.30;;;;;;4954966;28;19926;-91
2023/01/20 18:56:06;;;;;;;;;;;4.40;56.10;;;;;;4945528;28;19930;-93
2023/01/20 18:58:32;;;;;;;;;;;4.40;56.00;;;;;;4950792;29;19925;-90
2023/01/20 19:01:05;;;;;;;;;;;4.30;55.90;;;;;;4956438;28;19927;-95
2023/01/20 19:03:38;;;;;;;;;;;4.30;55.70;;;;;;4951120;28;19937;-92
2023/01/20 19:06:13;;;;;;;;;;;4.20;55.90;;;;;;4959930;29;19919;-92
2023/01/20 19:08:40;;;;;;;;;;;4.20;55.90;;;;;;4958022;29;20473;-90
2023/01/20 19:11:07;;;;;;;;;;;4.10;55.70;;;;;;4960461;29;20723;-91
2023/01/20 19:13:33;;;;;;;;;;;4.10;56.00;;;;;;4947604;28;19914;-89
2023/01/20 19:15:59;;;;;;;;;;;4.10;56.50;;;;;;4956006;28;19925;-90
2023/01/20 19:18:25;;;;;;;;;;;4.10;56.30;;;;;;4948998;29;19922;-91
2023/01/20 19:20:51;;;;;;;;;;;4.00;56.10;;;;;;4946547;28;19966;-90
2023/01/20 19:23:18;;;;;;;;;;;4.00;56.30;;;;;;4947874;29;19927;-94
2023/01/20 19:25:43;;;;;;;;;;;4.00;56.20;;;;;;4950609;29;19919;-89
2023/01/20 19:28:13;;;;;;;;;;;3.90;55.90;;;;;;4949617;29;19899;-90
2023/01/20 19:30:42;;;;;;;;;;;3.90;55.80;;;;;;4941259;29;19933;-94
2023/01/20 19:33:10;;;;;;;;;;;3.90;55.80;;;;;;4942914;29;20858;-90